Alamos, Argentina
Current Conditions -  °F | °C
As of 3:00 PM on Saturday 25 Oct 2014 (Local Time) from SAEZ Reporting Station
Few Clouds Few Clouds  
Wind Chill: 31°   Ceiling: Unl
Heat Index: 31°   Visibility: 6mi
Dew Point: 15°   Wind: 12mph
Humidity: 38%   Direction: 70°ENE
Pressure: 29.88"   Gusts: NA
Location:  36.97°S, 62.38°W
Report Text: SAEZ 251800Z 07010KT 9999 FEW049 31/15 Q1012
Loading
Personal Weather Stations






























Interactive Weather Map
Tropical Storm Tracking
New forecast layout! Learn more

10-Day Weather Forecast

Advertisements
Track Severe Weather on mobile